sensor_id;sensor_type;location;lat;lon;timestamp;pressure;altitude;pressure_sealevel;temperature;humidity
7376;BME280;3728;42.266;24.944;2022-11-27T00:01:34;100669.47;;;7.55;80.85
7376;BME280;3728;42.266;24.944;2022-11-27T00:04:06;100675.44;;;7.50;80.54
7376;BME280;3728;42.266;24.944;2022-11-27T00:06:35;100672.56;;;7.52;81.38
7376;BME280;3728;42.266;24.944;2022-11-27T00:09:13;100668.81;;;7.80;79.69
7376;BME280;3728;42.266;24.944;2022-11-27T00:11:42;100679.09;;;7.91;79.37
7376;BME280;3728;42.266;24.944;2022-11-27T00:14:12;100671.72;;;7.83;79.43
7376;BME280;3728;42.266;24.944;2022-11-27T00:16:40;100676.16;;;7.83;79.67
7376;BME280;3728;42.266;24.944;2022-11-27T00:19:09;100680.06;;;7.85;79.81
7376;BME280;3728;42.266;24.944;2022-11-27T00:21:37;100679.84;;;7.92;79.28
7376;BME280;3728;42.266;24.944;2022-11-27T00:24:06;100686.34;;;7.89;79.18
7376;BME280;3728;42.266;24.944;2022-11-27T00:26:34;100682.94;;;7.84;79.42
7376;BME280;3728;42.266;24.944;2022-11-27T00:29:07;100682.91;;;7.79;80.73
7376;BME280;3728;42.266;24.944;2022-11-27T00:31:35;100686.50;;;7.68;80.74
7376;BME280;3728;42.266;24.944;2022-11-27T00:34:05;100693.28;;;7.69;81.14
7376;BME280;3728;42.266;24.944;2022-11-27T00:36:34;100688.56;;;7.66;81.80
7376;BME280;3728;42.266;24.944;2022-11-27T00:39:03;100689.34;;;7.66;81.28
7376;BME280;3728;42.266;24.944;2022-11-27T00:41:32;100689.28;;;7.56;81.60
7376;BME280;3728;42.266;24.944;2022-11-27T00:43:59;100691.88;;;7.51;81.36
7376;BME280;3728;42.266;24.944;2022-11-27T00:46:29;100694.06;;;7.69;80.52
7376;BME280;3728;42.266;24.944;2022-11-27T00:49:00;100687.06;;;7.80;80.16
7376;BME280;3728;42.266;24.944;2022-11-27T00:51:29;100686.84;;;7.81;80.51
7376;BME280;3728;42.266;24.944;2022-11-27T00:53:57;100689.13;;;7.73;80.77
7376;BME280;3728;42.266;24.944;2022-11-27T00:56:28;100688.34;;;7.72;81.29
7376;BME280;3728;42.266;24.944;2022-11-27T00:58:57;100695.34;;;7.67;80.96
7376;BME280;3728;42.266;24.944;2022-11-27T01:01:29;100701.09;;;7.69;80.83
7376;BME280;3728;42.266;24.944;2022-11-27T01:04:03;100701.66;;;7.76;80.57
7376;BME280;3728;42.266;24.944;2022-11-27T01:06:32;100696.78;;;7.84;79.91
7376;BME280;3728;42.266;24.944;2022-11-27T01:09:00;100688.94;;;7.89;79.38
7376;BME280;3728;42.266;24.944;2022-11-27T01:11:31;100687.63;;;7.82;80.01
7376;BME280;3728;42.266;24.944;2022-11-27T01:14:03;100689.97;;;7.83;80.91
7376;BME280;3728;42.266;24.944;2022-11-27T01:16:33;100689.97;;;7.83;80.58
7376;BME280;3728;42.266;24.944;2022-11-27T01:19:04;100686.16;;;8.06;78.23
7376;BME280;3728;42.266;24.944;2022-11-27T01:21:33;100686.94;;;8.01;77.38
7376;BME280;3728;42.266;24.944;2022-11-27T01:24:02;100682.41;;;7.82;79.62
7376;BME280;3728;42.266;24.944;2022-11-27T01:26:30;100678.69;;;7.73;80.21
7376;BME280;3728;42.266;24.944;2022-11-27T01:28:58;100683.06;;;7.62;81.50
7376;BME280;3728;42.266;24.944;2022-11-27T01:31:29;100689.03;;;7.57;82.57
7376;BME280;3728;42.266;24.944;2022-11-27T01:34:03;100688.50;;;7.55;83.55
7376;BME280;3728;42.266;24.944;2022-11-27T01:36:37;100686.88;;;7.49;83.55
7376;BME280;3728;42.266;24.944;2022-11-27T01:39:04;100691.03;;;7.45;84.61
7376;BME280;3728;42.266;24.944;2022-11-27T01:41:34;100692.84;;;7.45;84.81
7376;BME280;3728;42.266;24.944;2022-11-27T01:46:57;100698.38;;;7.48;84.60
7376;BME280;3728;42.266;24.944;2022-11-27T01:49:37;100694.25;;;7.57;84.47
7376;BME280;3728;42.266;24.944;2022-11-27T01:52:25;100693.78;;;7.66;84.29
7376;BME280;3728;42.266;24.944;2022-11-27T01:54:57;100693.50;;;7.62;84.63
7376;BME280;3728;42.266;24.944;2022-11-27T01:57:50;100684.88;;;7.62;85.46
7376;BME280;3728;42.266;24.944;2022-11-27T02:00:40;100676.84;;;7.68;84.72
7376;BME280;3728;42.266;24.944;2022-11-27T02:03:08;100675.53;;;7.66;85.44
7376;BME280;3728;42.266;24.944;2022-11-27T02:05:35;100680.72;;;7.61;85.60
7376;BME280;3728;42.266;24.944;2022-11-27T02:08:09;100679.16;;;7.59;84.45
7376;BME280;3728;42.266;24.944;2022-11-27T02:17:13;100678.66;;;7.63;84.70
7376;BME280;3728;42.266;24.944;2022-11-27T02:19:54;100675.03;;;7.69;83.57
7376;BME280;3728;42.266;24.944;2022-11-27T02:23:13;100675.72;;;7.54;84.05
7376;BME280;3728;42.266;24.944;2022-11-27T02:29:17;100673.66;;;7.61;84.61
7376;BME280;3728;42.266;24.944;2022-11-27T02:37:33;100681.78;;;7.65;85.40
7376;BME280;3728;42.266;24.944;2022-11-27T02:42:58;100684.88;;;7.62;85.25
7376;BME280;3728;42.266;24.944;2022-11-27T02:45:35;100687.97;;;7.53;86.22
7376;BME280;3728;42.266;24.944;2022-11-27T02:48:16;100686.94;;;7.54;85.92
7376;BME280;3728;42.266;24.944;2022-11-27T02:50:49;100689.63;;;7.65;85.02
7376;BME280;3728;42.266;24.944;2022-11-27T02:53:23;100693.00;;;7.65;84.91
7376;BME280;3728;42.266;24.944;2022-11-27T02:55:56;100686.19;;;7.59;84.68
7376;BME280;3728;42.266;24.944;2022-11-27T02:58:26;100685.75;;;7.72;85.12
7376;BME280;3728;42.266;24.944;2022-11-27T03:00:56;100691.78;;;7.83;83.47
7376;BME280;3728;42.266;24.944;2022-11-27T03:03:28;100697.28;;;7.81;83.08
7376;BME280;3728;42.266;24.944;2022-11-27T03:06:04;100699.06;;;7.76;83.73
7376;BME280;3728;42.266;24.944;2022-11-27T03:11:36;100691.72;;;7.68;84.96
7376;BME280;3728;42.266;24.944;2022-11-27T03:14:06;100686.78;;;7.71;84.39
7376;BME280;3728;42.266;24.944;2022-11-27T03:19:29;100698.81;;;7.82;83.86
7376;BME280;3728;42.266;24.944;2022-11-27T03:22:03;100695.31;;;7.62;83.93
7376;BME280;3728;42.266;24.944;2022-11-27T03:24:33;100696.56;;;7.54;85.11
7376;BME280;3728;42.266;24.944;2022-11-27T03:27:02;100693.72;;;7.55;84.93
7376;BME280;3728;42.266;24.944;2022-11-27T03:29:49;100698.97;;;7.66;85.04
7376;BME280;3728;42.266;24.944;2022-11-27T03:32:20;100694.84;;;7.70;85.03
7376;BME280;3728;42.266;24.944;2022-11-27T03:34:48;100697.69;;;7.68;84.72
7376;BME280;3728;42.266;24.944;2022-11-27T03:37:16;100698.75;;;7.67;84.59
7376;BME280;3728;42.266;24.944;2022-11-27T03:39:45;100695.63;;;7.70;84.38
7376;BME280;3728;42.266;24.944;2022-11-27T03:42:28;100701.59;;;7.66;84.73
7376;BME280;3728;42.266;24.944;2022-11-27T03:56:46;100697.34;;;7.54;85.88
7376;BME280;3728;42.266;24.944;2022-11-27T03:59:33;100694.28;;;7.63;86.36
7376;BME280;3728;42.266;24.944;2022-11-27T04:02:04;100698.47;;;7.64;86.10
7376;BME280;3728;42.266;24.944;2022-11-27T04:04:32;100696.38;;;7.61;84.89
7376;BME280;3728;42.266;24.944;2022-11-27T04:06:59;100690.81;;;7.52;86.46
7376;BME280;3728;42.266;24.944;2022-11-27T04:09:27;100696.38;;;7.66;85.37
7376;BME280;3728;42.266;24.944;2022-11-27T04:11:54;100692.25;;;7.70;85.04
7376;BME280;3728;42.266;24.944;2022-11-27T04:14:22;100687.34;;;7.78;85.08
7376;BME280;3728;42.266;24.944;2022-11-27T04:16:49;100673.81;;;7.81;83.73
7376;BME280;3728;42.266;24.944;2022-11-27T04:19:17;100677.22;;;7.45;86.39
7376;BME280;3728;42.266;24.944;2022-11-27T04:21:44;100682.78;;;7.53;86.78
7376;BME280;3728;42.266;24.944;2022-11-27T04:24:12;100681.34;;;7.78;86.06
7376;BME280;3728;42.266;24.944;2022-11-27T04:26:39;100688.03;;;7.64;85.68
7376;BME280;3728;42.266;24.944;2022-11-27T04:29:07;100681.06;;;7.74;85.55
7376;BME280;3728;42.266;24.944;2022-11-27T04:31:34;100684.31;;;7.54;86.17
7376;BME280;3728;42.266;24.944;2022-11-27T04:34:02;100678.91;;;7.24;87.79
7376;BME280;3728;42.266;24.944;2022-11-27T04:36:30;100678.69;;;7.31;87.47
7376;BME280;3728;42.266;24.944;2022-11-27T04:39:04;100677.94;;;7.35;87.07
7376;BME280;3728;42.266;24.944;2022-11-27T04:41:32;100687.56;;;7.35;87.18
7376;BME280;3728;42.266;24.944;2022-11-27T04:43:59;100683.13;;;7.35;87.67
7376;BME280;3728;42.266;24.944;2022-11-27T04:46:27;100691.88;;;7.19;87.71
7376;BME280;3728;42.266;24.944;2022-11-27T04:48:55;100698.06;;;7.45;86.49
7376;BME280;3728;42.266;24.944;2022-11-27T04:51:22;100683.72;;;7.42;85.52
7376;BME280;3728;42.266;24.944;2022-11-27T04:53:50;100688.56;;;7.29;85.07
7376;BME280;3728;42.266;24.944;2022-11-27T04:56:17;100691.53;;;7.42;85.06
7376;BME280;3728;42.266;24.944;2022-11-27T04:58:45;100696.66;;;7.27;86.81
7376;BME280;3728;42.266;24.944;2022-11-27T05:01:13;100695.56;;;7.23;86.81
7376;BME280;3728;42.266;24.944;2022-11-27T05:03:41;100699.94;;;7.18;87.92
7376;BME280;3728;42.266;24.944;2022-11-27T05:06:08;100701.03;;;7.22;86.86
7376;BME280;3728;42.266;24.944;2022-11-27T05:08:36;100701.47;;;7.14;87.62
7376;BME280;3728;42.266;24.944;2022-11-27T05:11:09;100686.00;;;7.02;88.15
7376;BME280;3728;42.266;24.944;2022-11-27T05:13:39;100689.19;;;7.09;88.81
7376;BME280;3728;42.266;24.944;2022-11-27T05:16:07;100695.09;;;7.00;88.65
7376;BME280;3728;42.266;24.944;2022-11-27T05:18:35;100707.41;;;7.04;88.98
7376;BME280;3728;42.266;24.944;2022-11-27T05:21:07;100710.00;;;7.04;87.83
7376;BME280;3728;42.266;24.944;2022-11-27T05:23:37;100703.09;;;6.93;88.80
7376;BME280;3728;42.266;24.944;2022-11-27T05:26:05;100698.34;;;6.85;89.06
7376;BME280;3728;42.266;24.944;2022-11-27T05:28:33;100696.97;;;6.77;89.48
7376;BME280;3728;42.266;24.944;2022-11-27T05:31:00;100708.13;;;6.73;88.92
7376;BME280;3728;42.266;24.944;2022-11-27T05:33:28;100722.44;;;6.97;88.03
7376;BME280;3728;42.266;24.944;2022-11-27T05:35:55;100723.00;;;6.77;89.42
7376;BME280;3728;42.266;24.944;2022-11-27T05:38:23;100724.41;;;6.85;89.15
7376;BME280;3728;42.266;24.944;2022-11-27T05:40:50;100734.31;;;6.88;87.99
7376;BME280;3728;42.266;24.944;2022-11-27T05:43:18;100741.44;;;6.71;89.56
7376;BME280;3728;42.266;24.944;2022-11-27T05:45:45;100739.31;;;7.21;86.91
7376;BME280;3728;42.266;24.944;2022-11-27T05:48:13;100732.88;;;7.29;84.25
7376;BME280;3728;42.266;24.944;2022-11-27T05:50:41;100734.31;;;6.88;86.13
7376;BME280;3728;42.266;24.944;2022-11-27T05:53:08;100728.81;;;7.11;86.15
7376;BME280;3728;42.266;24.944;2022-11-27T05:55:35;100731.56;;;6.73;85.92
7376;BME280;3728;42.266;24.944;2022-11-27T05:58:03;100737.72;;;6.67;88.46
7376;BME280;3728;42.266;24.944;2022-11-27T06:00:30;100737.00;;;6.71;88.47
7376;BME280;3728;42.266;24.944;2022-11-27T06:02:58;100744.09;;;6.54;89.05
7376;BME280;3728;42.266;24.944;2022-11-27T06:05:26;100753.72;;;6.54;88.17
7376;BME280;3728;42.266;24.944;2022-11-27T06:07:53;100754.88;;;6.63;88.16
7376;BME280;3728;42.266;24.944;2022-11-27T06:10:21;100755.41;;;6.65;88.60
7376;BME280;3728;42.266;24.944;2022-11-27T06:12:49;100749.28;;;6.76;88.21
7376;BME280;3728;42.266;24.944;2022-11-27T06:15:16;100752.66;;;6.76;86.92
7376;BME280;3728;42.266;24.944;2022-11-27T06:17:44;100751.72;;;6.82;85.95
7376;BME280;3728;42.266;24.944;2022-11-27T06:20:11;100751.88;;;6.76;85.96
7376;BME280;3728;42.266;24.944;2022-11-27T06:22:39;100753.41;;;6.72;86.08
7376;BME280;3728;42.266;24.944;2022-11-27T06:25:07;100757.59;;;6.73;86.17
7376;BME280;3728;42.266;24.944;2022-11-27T06:27:35;100756.72;;;6.89;85.16
7376;BME280;3728;42.266;24.944;2022-11-27T06:30:03;100767.47;;;7.24;82.56
7376;BME280;3728;42.266;24.944;2022-11-27T06:32:31;100767.03;;;7.32;81.99
7376;BME280;3728;42.266;24.944;2022-11-27T06:34:59;100760.66;;;7.82;79.37
7376;BME280;3728;42.266;24.944;2022-11-27T06:37:26;100752.19;;;7.65;79.11
7376;BME280;3728;42.266;24.944;2022-11-27T06:39:54;100755.84;;;7.69;79.44
7376;BME280;3728;42.266;24.944;2022-11-27T06:42:21;100755.56;;;7.33;80.60
7376;BME280;3728;42.266;24.944;2022-11-27T06:44:49;100763.19;;;7.40;81.50
7376;BME280;3728;42.266;24.944;2022-11-27T06:47:16;100757.16;;;7.34;81.48
7376;BME280;3728;42.266;24.944;2022-11-27T06:49:44;100761.84;;;7.32;83.83
7376;BME280;3728;42.266;24.944;2022-11-27T06:52:11;100761.25;;;7.25;83.54
7376;BME280;3728;42.266;24.944;2022-11-27T06:54:39;100764.03;;;7.45;83.80
7376;BME280;3728;42.266;24.944;2022-11-27T06:57:07;100766.03;;;7.38;84.60
7376;BME280;3728;42.266;24.944;2022-11-27T06:59:34;100762.31;;;7.61;83.70
7376;BME280;3728;42.266;24.944;2022-11-27T07:02:02;100760.00;;;7.33;83.72
7376;BME280;3728;42.266;24.944;2022-11-27T07:04:29;100760.19;;;7.26;84.04
7376;BME280;3728;42.266;24.944;2022-11-27T07:06:57;100761.41;;;7.45;83.65
7376;BME280;3728;42.266;24.944;2022-11-27T07:09:25;100760.41;;;7.51;84.97
7376;BME280;3728;42.266;24.944;2022-11-27T07:11:53;100753.72;;;7.61;83.92
7376;BME280;3728;42.266;24.944;2022-11-27T07:14:20;100753.63;;;7.87;81.23
7376;BME280;3728;42.266;24.944;2022-11-27T07:16:47;100751.50;;;7.79;80.74
7376;BME280;3728;42.266;24.944;2022-11-27T07:19:15;100748.69;;;7.86;80.15
7376;BME280;3728;42.266;24.944;2022-11-27T07:21:45;100748.41;;;7.87;80.87
7376;BME280;3728;42.266;24.944;2022-11-27T07:24:13;100757.22;;;8.23;78.92
7376;BME280;3728;42.266;24.944;2022-11-27T07:26:40;100764.44;;;8.06;79.18
7376;BME280;3728;42.266;24.944;2022-11-27T07:29:08;100760.16;;;8.32;78.57
7376;BME280;3728;42.266;24.944;2022-11-27T07:31:36;100752.78;;;8.18;79.31
7376;BME280;3728;42.266;24.944;2022-11-27T07:34:03;100757.28;;;8.28;79.00
7376;BME280;3728;42.266;24.944;2022-11-27T07:36:40;100764.09;;;8.34;78.33
7376;BME280;3728;42.266;24.944;2022-11-27T07:39:08;100768.13;;;8.57;77.58
7376;BME280;3728;42.266;24.944;2022-11-27T07:41:36;100765.22;;;8.53;78.21
7376;BME280;3728;42.266;24.944;2022-11-27T07:44:04;100763.47;;;8.74;77.78
7376;BME280;3728;42.266;24.944;2022-11-27T07:46:31;100763.03;;;8.97;76.60
7376;BME280;3728;42.266;24.944;2022-11-27T07:49:00;100765.88;;;8.90;76.18
7376;BME280;3728;42.266;24.944;2022-11-27T07:51:29;100769.84;;;9.13;75.79
7376;BME280;3728;42.266;24.944;2022-11-27T07:53:58;100768.03;;;9.14;74.08
7376;BME280;3728;42.266;24.944;2022-11-27T07:56:26;100767.50;;;9.22;73.73
7376;BME280;3728;42.266;24.944;2022-11-27T07:58:55;100762.53;;;9.20;73.39
7376;BME280;3728;42.266;24.944;2022-11-27T08:01:23;100769.84;;;9.23;74.22
7376;BME280;3728;42.266;24.944;2022-11-27T08:03:51;100759.16;;;9.35;74.26
7376;BME280;3728;42.266;24.944;2022-11-27T08:06:21;100760.47;;;9.32;75.17
7376;BME280;3728;42.266;24.944;2022-11-27T08:08:51;100763.84;;;9.43;74.71
7376;BME280;3728;42.266;24.944;2022-11-27T08:11:26;100760.44;;;9.52;73.06
7376;BME280;3728;42.266;24.944;2022-11-27T08:14:03;100774.06;;;9.64;72.25
7376;BME280;3728;42.266;24.944;2022-11-27T08:16:33;100763.03;;;9.88;70.26
7376;BME280;3728;42.266;24.944;2022-11-27T08:19:02;100766.97;;;9.85;69.75
7376;BME280;3728;42.266;24.944;2022-11-27T08:21:31;100761.72;;;9.95;68.80
7376;BME280;3728;42.266;24.944;2022-11-27T08:24:00;100765.38;;;9.94;69.08
7376;BME280;3728;42.266;24.944;2022-11-27T08:26:30;100765.88;;;10.06;67.33
7376;BME280;3728;42.266;24.944;2022-11-27T08:28:58;100762.75;;;10.14;66.14
7376;BME280;3728;42.266;24.944;2022-11-27T08:31:26;100759.56;;;10.22;66.63
7376;BME280;3728;42.266;24.944;2022-11-27T08:33:55;100758.94;;;10.51;64.89
7376;BME280;3728;42.266;24.944;2022-11-27T08:36:25;100760.81;;;10.50;64.19
7376;BME280;3728;42.266;24.944;2022-11-27T08:38:57;100764.97;;;10.51;64.03
7376;BME280;3728;42.266;24.944;2022-11-27T08:41:24;100756.91;;;10.43;64.48
7376;BME280;3728;42.266;24.944;2022-11-27T08:43:53;100749.75;;;10.63;62.77
7376;BME280;3728;42.266;24.944;2022-11-27T08:46:21;100749.78;;;10.53;63.79
7376;BME280;3728;42.266;24.944;2022-11-27T08:48:49;100748.34;;;10.81;63.27
7376;BME280;3728;42.266;24.944;2022-11-27T08:51:16;100742.25;;;10.90;61.61
7376;BME280;3728;42.266;24.944;2022-11-27T08:53:45;100744.25;;;10.60;62.93
7376;BME280;3728;42.266;24.944;2022-11-27T08:56:15;100751.00;;;10.71;63.64
7376;BME280;3728;42.266;24.944;2022-11-27T08:58:47;100754.31;;;10.91;62.30
7376;BME280;3728;42.266;24.944;2022-11-27T09:01:24;100756.31;;;10.56;65.24
7376;BME280;3728;42.266;24.944;2022-11-27T09:03:55;100748.44;;;10.56;66.03
7376;BME280;3728;42.266;24.944;2022-11-27T09:06:27;100745.84;;;10.51;65.38
7376;BME280;3728;42.266;24.944;2022-11-27T09:09:01;100738.31;;;10.39;66.69
7376;BME280;3728;42.266;24.944;2022-11-27T09:11:31;100732.97;;;10.64;65.32
7376;BME280;3728;42.266;24.944;2022-11-27T09:14:01;100734.75;;;10.74;65.15
7376;BME280;3728;42.266;24.944;2022-11-27T09:16:30;100733.34;;;10.91;63.20
7376;BME280;3728;42.266;24.944;2022-11-27T09:18:59;100726.81;;;11.23;60.69
7376;BME280;3728;42.266;24.944;2022-11-27T09:21:29;100730.09;;;10.61;63.34
7376;BME280;3728;42.266;24.944;2022-11-27T09:23:59;100727.03;;;10.44;64.87
7376;BME280;3728;42.266;24.944;2022-11-27T09:26:35;100728.88;;;10.43;65.53
7376;BME280;3728;42.266;24.944;2022-11-27T09:29:04;100723.97;;;10.80;63.64
7376;BME280;3728;42.266;24.944;2022-11-27T09:31:31;100722.09;;;10.86;61.89
7376;BME280;3728;42.266;24.944;2022-11-27T09:33:59;100720.91;;;11.07;61.22
7376;BME280;3728;42.266;24.944;2022-11-27T09:36:31;100707.50;;;10.70;62.05
7376;BME280;3728;42.266;24.944;2022-11-27T09:38:59;100710.59;;;10.82;62.81
7376;BME280;3728;42.266;24.944;2022-11-27T09:44:39;100702.19;;;10.85;63.60
7376;BME280;3728;42.266;24.944;2022-11-27T09:50:14;100692.41;;;11.29;61.24
7376;BME280;3728;42.266;24.944;2022-11-27T09:52:50;100683.25;;;11.55;60.42
7376;BME280;3728;42.266;24.944;2022-11-27T09:58:16;100673.72;;;11.36;60.17
7376;BME280;3728;42.266;24.944;2022-11-27T10:00:47;100668.94;;;11.72;58.46
7376;BME280;3728;42.266;24.944;2022-11-27T10:03:22;100663.56;;;11.58;58.48
7376;BME280;3728;42.266;24.944;2022-11-27T10:06:03;100663.22;;;11.70;58.61
7376;BME280;3728;42.266;24.944;2022-11-27T10:18:33;100631.00;;;12.06;54.20
7376;BME280;3728;42.266;24.944;2022-11-27T10:21:14;100628.28;;;12.86;53.03
7376;BME280;3728;42.266;24.944;2022-11-27T10:23:57;100614.88;;;12.87;50.97
7376;BME280;3728;42.266;24.944;2022-11-27T10:26:52;100622.88;;;12.45;53.12
7376;BME280;3728;42.266;24.944;2022-11-27T10:29:38;100616.28;;;12.29;52.51
7376;BME280;3728;42.266;24.944;2022-11-27T10:32:23;100613.78;;;12.38;51.33
7376;BME280;3728;42.266;24.944;2022-11-27T10:35:26;100613.00;;;12.56;49.03
7376;BME280;3728;42.266;24.944;2022-11-27T10:38:18;100611.03;;;12.48;49.38
7376;BME280;3728;42.266;24.944;2022-11-27T10:41:04;100610.75;;;12.81;46.20
7376;BME280;3728;42.266;24.944;2022-11-27T10:44:14;100600.81;;;12.78;48.56
7376;BME280;3728;42.266;24.944;2022-11-27T10:47:01;100588.28;;;12.89;47.55
7376;BME280;3728;42.266;24.944;2022-11-27T10:49:34;100584.72;;;12.98;48.37
7376;BME280;3728;42.266;24.944;2022-11-27T10:52:03;100581.69;;;13.37;45.92
7376;BME280;3728;42.266;24.944;2022-11-27T10:54:36;100577.97;;;13.38;45.62
7376;BME280;3728;42.266;24.944;2022-11-27T11:00:19;100575.31;;;14.28;45.06
7376;BME280;3728;42.266;24.944;2022-11-27T11:03:04;100576.63;;;14.04;45.63
7376;BME280;3728;42.266;24.944;2022-11-27T11:05:33;100571.34;;;13.68;45.80
7376;BME280;3728;42.266;24.944;2022-11-27T11:08:22;100572.38;;;13.81;45.19
7376;BME280;3728;42.266;24.944;2022-11-27T11:11:00;100565.88;;;13.51;44.99
7376;BME280;3728;42.266;24.944;2022-11-27T11:13:41;100568.44;;;13.42;45.37
7376;BME280;3728;42.266;24.944;2022-11-27T11:16:19;100556.41;;;13.50;44.48
7376;BME280;3728;42.266;24.944;2022-11-27T11:18:52;100555.84;;;13.53;45.36
7376;BME280;3728;42.266;24.944;2022-11-27T11:21:40;100546.19;;;13.48;45.56
7376;BME280;3728;42.266;24.944;2022-11-27T11:24:17;100550.88;;;13.65;44.07
7376;BME280;3728;42.266;24.944;2022-11-27T11:26:57;100550.69;;;13.97;42.62
7376;BME280;3728;42.266;24.944;2022-11-27T11:29:35;100548.09;;;13.84;42.78
7376;BME280;3728;42.266;24.944;2022-11-27T11:32:24;100545.94;;;13.86;43.13
7376;BME280;3728;42.266;24.944;2022-11-27T11:35:07;100535.84;;;13.65;44.08
7376;BME280;3728;42.266;24.944;2022-11-27T11:37:52;100538.69;;;13.15;45.63
7376;BME280;3728;42.266;24.944;2022-11-27T11:40:24;100535.47;;;13.18;45.92
7376;BME280;3728;42.266;24.944;2022-11-27T11:43:03;100530.78;;;13.15;45.59
7376;BME280;3728;42.266;24.944;2022-11-27T11:45:44;100534.59;;;13.09;45.28
7376;BME280;3728;42.266;24.944;2022-11-27T11:48:24;100529.69;;;13.02;45.77
7376;BME280;3728;42.266;24.944;2022-11-27T11:50:59;100525.00;;;12.85;45.65
7376;BME280;3728;42.266;24.944;2022-11-27T11:53:35;100524.09;;;12.76;46.71
7376;BME280;3728;42.266;24.944;2022-11-27T11:59:45;100518.47;;;12.96;46.23
7376;BME280;3728;42.266;24.944;2022-11-27T12:05:17;100514.72;;;12.70;45.76
7376;BME280;3728;42.266;24.944;2022-11-27T12:18:31;100502.09;;;12.86;44.23
7376;BME280;3728;42.266;24.944;2022-11-27T12:21:36;100493.44;;;12.99;43.98
7376;BME280;3728;42.266;24.944;2022-11-27T12:30:20;100486.53;;;12.11;46.75
7376;BME280;3728;42.266;24.944;2022-11-27T12:35:48;100490.63;;;12.36;46.91
7376;BME280;3728;42.266;24.944;2022-11-27T12:42:19;100484.47;;;11.90;48.80
7376;BME280;3728;42.266;24.944;2022-11-27T12:45:04;100482.00;;;11.80;48.84
7376;BME280;3728;42.266;24.944;2022-11-27T12:50:31;100489.53;;;11.86;48.07
7376;BME280;3728;42.266;24.944;2022-11-27T12:58:54;100484.94;;;12.61;46.43
7376;BME280;3728;42.266;24.944;2022-11-27T13:01:35;100476.06;;;12.25;47.01
7376;BME280;3728;42.266;24.944;2022-11-27T13:04:26;100485.63;;;12.34;47.18
7376;BME280;3728;42.266;24.944;2022-11-27T13:07:51;100473.34;;;11.98;48.57
7376;BME280;3728;42.266;24.944;2022-11-27T13:10:27;100477.50;;;11.99;48.62
7376;BME280;3728;42.266;24.944;2022-11-27T13:13:10;100471.03;;;12.28;47.11
7376;BME280;3728;42.266;24.944;2022-11-27T13:15:48;100477.06;;;12.29;47.79
7376;BME280;3728;42.266;24.944;2022-11-27T13:18:40;100476.66;;;12.22;47.64
7376;BME280;3728;42.266;24.944;2022-11-27T13:21:23;100478.78;;;12.20;47.92
7376;BME280;3728;42.266;24.944;2022-11-27T13:23:53;100485.06;;;11.87;48.95
7376;BME280;3728;42.266;24.944;2022-11-27T13:26:40;100477.38;;;12.09;47.46
7376;BME280;3728;42.266;24.944;2022-11-27T13:29:41;100476.53;;;11.95;48.51
7376;BME280;3728;42.266;24.944;2022-11-27T13:32:45;100479.72;;;11.92;49.18
7376;BME280;3728;42.266;24.944;2022-11-27T13:35:39;100478.97;;;11.91;48.42
7376;BME280;3728;42.266;24.944;2022-11-27T13:40:53;100480.44;;;11.97;48.00
7376;BME280;3728;42.266;24.944;2022-11-27T13:43:26;100483.69;;;12.08;47.46
7376;BME280;3728;42.266;24.944;2022-11-27T13:46:23;100479.91;;;12.46;45.32
7376;BME280;3728;42.266;24.944;2022-11-27T13:48:58;100477.72;;;12.02;47.44
7376;BME280;3728;42.266;24.944;2022-11-27T13:51:36;100484.19;;;12.10;46.94
7376;BME280;3728;42.266;24.944;2022-11-27T13:54:15;100476.09;;;11.88;47.99
7376;BME280;3728;42.266;24.944;2022-11-27T13:56:56;100477.94;;;11.87;47.21
7376;BME280;3728;42.266;24.944;2022-11-27T13:59:34;100469.91;;;11.60;48.27
7376;BME280;3728;42.266;24.944;2022-11-27T14:02:07;100481.19;;;11.60;48.18
7376;BME280;3728;42.266;24.944;2022-11-27T14:04:47;100476.78;;;11.37;48.78
7376;BME280;3728;42.266;24.944;2022-11-27T14:07:36;100473.06;;;11.38;48.29
7376;BME280;3728;42.266;24.944;2022-11-27T14:10:14;100467.72;;;11.25;48.66
7376;BME280;3728;42.266;24.944;2022-11-27T14:13:18;100475.31;;;11.26;49.04
7376;BME280;3728;42.266;24.944;2022-11-27T14:15:57;100479.88;;;11.39;48.23
7376;BME280;3728;42.266;24.944;2022-11-27T14:18:30;100474.19;;;11.32;50.10
7376;BME280;3728;42.266;24.944;2022-11-27T14:21:01;100470.00;;;11.31;50.28
7376;BME280;3728;42.266;24.944;2022-11-27T14:23:47;100469.94;;;11.36;51.02
7376;BME280;3728;42.266;24.944;2022-11-27T14:26:23;100470.66;;;11.23;50.00
7376;BME280;3728;42.266;24.944;2022-11-27T14:28:54;100462.25;;;11.21;49.66
7376;BME280;3728;42.266;24.944;2022-11-27T14:31:28;100477.72;;;11.23;49.92
7376;BME280;3728;42.266;24.944;2022-11-27T14:33:59;100475.75;;;11.33;49.58
7376;BME280;3728;42.266;24.944;2022-11-27T14:36:44;100467.13;;;11.33;49.33
7376;BME280;3728;42.266;24.944;2022-11-27T14:39:33;100464.13;;;11.21;50.06
7376;BME280;3728;42.266;24.944;2022-11-27T14:42:05;100467.28;;;11.18;50.37
7376;BME280;3728;42.266;24.944;2022-11-27T14:44:45;100467.50;;;11.21;51.03
7376;BME280;3728;42.266;24.944;2022-11-27T14:47:38;100468.53;;;11.25;51.24
7376;BME280;3728;42.266;24.944;2022-11-27T14:50:19;100469.13;;;11.17;51.12
7376;BME280;3728;42.266;24.944;2022-11-27T14:52:55;100464.13;;;11.21;51.58
7376;BME280;3728;42.266;24.944;2022-11-27T14:55:30;100456.00;;;11.17;51.11
7376;BME280;3728;42.266;24.944;2022-11-27T14:58:03;100465.28;;;11.10;51.27
7376;BME280;3728;42.266;24.944;2022-11-27T15:00:35;100466.84;;;11.11;52.54
7376;BME280;3728;42.266;24.944;2022-11-27T15:03:27;100458.94;;;11.16;52.96
7376;BME280;3728;42.266;24.944;2022-11-27T15:05:57;100458.69;;;11.12;52.78
7376;BME280;3728;42.266;24.944;2022-11-27T15:08:36;100454.25;;;11.13;53.23
7376;BME280;3728;42.266;24.944;2022-11-27T15:11:05;100461.91;;;11.09;51.79
7376;BME280;3728;42.266;24.944;2022-11-27T15:13:34;100467.13;;;11.09;52.15
7376;BME280;3728;42.266;24.944;2022-11-27T15:16:10;100471.84;;;11.07;52.08
7376;BME280;3728;42.266;24.944;2022-11-27T15:19:16;100464.13;;;10.97;53.02
7376;BME280;3728;42.266;24.944;2022-11-27T15:21:57;100465.72;;;10.93;54.04
7376;BME280;3728;42.266;24.944;2022-11-27T15:24:36;100462.00;;;10.99;54.54